Time;durP1;ratioP1;P1;durP2;ratioP2;P2;SDS_P1;SDS_P2;PMS_P1;PMS_P2;Temp;Humidity;BMP_temperature;BMP_pressure;BME280_temperature;BME280_humidity;BME280_pressure;Samples;Min_cycle;Max_cycle;Signal;HPM_P1;HPM_P2
2023/10/22 00:00:43;;;;;;;28.90;4.63;;;15.60;98.70;;;;;;7378888;19;20007;-77
2023/10/22 00:03:14;;;;;;;24.77;4.10;;;15.60;98.70;;;;;;7381316;19;20003;-78
2023/10/22 00:05:43;;;;;;;28.10;4.03;;;15.70;98.80;;;;;;7380554;19;20019;-78
2023/10/22 00:08:12;;;;;;;25.13;3.83;;;15.50;99.00;;;;;;7401972;19;20035;-79
2023/10/22 00:10:40;;;;;;;31.05;4.45;;;15.60;98.90;;;;;;7380293;19;20003;-78
2023/10/22 00:13:09;;;;;;;30.50;3.67;;;15.70;98.70;;;;;;7380061;19;20368;-78
2023/10/22 00:15:38;;;;;;;32.60;4.00;;;15.90;98.60;;;;;;7380070;19;20015;-78
2023/10/22 00:18:07;;;;;;;39.60;4.43;;;15.90;98.40;;;;;;7379574;19;20011;-79
2023/10/22 00:20:39;;;;;;;24.85;4.20;;;15.90;98.20;;;;;;7381881;19;20015;-79
2023/10/22 00:23:08;;;;;;;34.50;4.15;;;15.80;98.10;;;;;;7403409;19;20125;-78
2023/10/22 00:25:37;;;;;;;24.13;3.92;;;15.90;98.20;;;;;;7380109;19;20015;-79
2023/10/22 00:28:06;;;;;;;37.13;3.20;;;15.90;98.20;;;;;;7380849;19;20117;-79
2023/10/22 00:30:36;;;;;;;33.88;4.35;;;15.80;98.10;;;;;;7388262;19;20007;-79
2023/10/22 00:33:05;;;;;;;25.15;3.72;;;15.90;98.10;;;;;;7388127;19;20013;-80
2023/10/22 00:35:34;;;;;;;29.75;4.35;;;15.80;98.00;;;;;;7390127;19;20022;-80
2023/10/22 00:38:05;;;;;;;24.60;3.33;;;15.90;98.10;;;;;;7408550;19;20010;-79
2023/10/22 00:40:34;;;;;;;31.88;4.25;;;16.00;98.10;;;;;;7386244;19;20007;-78
2023/10/22 00:43:06;;;;;;;28.05;3.83;;;16.00;97.90;;;;;;7388276;19;20015;-78
2023/10/22 00:45:38;;;;;;;33.38;4.38;;;16.10;97.90;;;;;;7385935;19;20020;-79
2023/10/22 00:48:08;;;;;;;31.90;4.03;;;16.00;97.80;;;;;;7385306;19;20019;-79
2023/10/22 00:50:39;;;;;;;36.70;4.28;;;15.90;97.80;;;;;;7383016;19;19999;-78
2023/10/22 00:53:11;;;;;;;20.97;3.63;;;15.90;97.70;;;;;;7409708;19;20006;-79
2023/10/22 00:55:42;;;;;;;25.77;4.82;;;15.80;97.80;;;;;;7387292;19;20066;-79
2023/10/22 00:58:11;;;;;;;30.02;4.05;;;15.80;97.80;;;;;;7386865;19;20006;-78
2023/10/22 01:00:40;;;;;;;21.38;4.05;;;15.90;97.80;;;;;;7385856;19;20015;-79
2023/10/22 01:03:09;;;;;;;33.65;4.30;;;16.00;97.80;;;;;;7384375;19;20016;-77
2023/10/22 01:05:39;;;;;;;25.27;3.63;;;16.00;97.70;;;;;;7386983;19;20025;-78
2023/10/22 01:08:12;;;;;;;23.33;3.03;;;16.00;97.40;;;;;;7405753;19;20031;-78
2023/10/22 01:10:41;;;;;;;26.67;3.47;;;16.00;97.50;;;;;;7382572;19;20405;-77
2023/10/22 01:13:10;;;;;;;24.63;4.35;;;15.90;97.40;;;;;;7392428;19;20003;-78
2023/10/22 01:15:39;;;;;;;31.15;3.50;;;15.70;97.30;;;;;;7393342;19;20034;-78
2023/10/22 01:18:08;;;;;;;36.45;4.10;;;15.60;97.50;;;;;;7387658;19;20018;-78
2023/10/22 01:20:36;;;;;;;31.27;4.10;;;15.50;97.90;;;;;;7381785;19;20075;-77
2023/10/22 01:23:05;;;;;;;35.33;4.22;;;15.40;98.10;;;;;;7407511;19;20027;-78
2023/10/22 01:25:36;;;;;;;25.20;4.03;;;15.50;98.00;;;;;;7383101;19;20011;-78
2023/10/22 01:28:06;;;;;;;24.50;4.28;;;15.70;97.80;;;;;;7385649;19;20014;-78
2023/10/22 01:30:34;;;;;;;25.60;4.18;;;15.80;97.70;;;;;;7385993;19;20047;-78
2023/10/22 01:33:03;;;;;;;21.30;3.50;;;15.80;97.60;;;;;;7383978;19;20232;-79
2023/10/22 01:35:32;;;;;;;23.35;3.85;;;15.90;97.60;;;;;;7394748;19;20011;-78
2023/10/22 01:38:01;;;;;;;16.00;3.17;;;15.90;97.40;;;;;;7404797;19;20023;-78
2023/10/22 01:40:29;;;;;;;31.48;3.60;;;15.70;97.40;;;;;;7383549;19;20010;-78
2023/10/22 01:43:01;;;;;;;33.20;4.25;;;15.80;97.40;;;;;;7384661;19;20006;-79
2023/10/22 01:45:29;;;;;;;28.33;4.40;;;15.90;97.40;;;;;;7382814;19;20007;-79
2023/10/22 01:47:58;;;;;;;28.73;3.75;;;15.90;97.30;;;;;;7383566;19;20011;-79
2023/10/22 01:50:27;;;;;;;38.97;4.43;;;16.00;97.40;;;;;;7403464;19;20021;-79
2023/10/22 01:52:56;;;;;;;28.65;3.85;;;15.80;97.20;;;;;;7383287;19;20011;-78
2023/10/22 01:55:24;;;;;;;32.72;4.35;;;15.80;97.30;;;;;;7383975;19;20003;-80
2023/10/22 01:57:53;;;;;;;29.95;4.00;;;15.90;97.20;;;;;;7382596;19;20062;-79
2023/10/22 02:00:25;;;;;;;26.20;3.05;;;15.80;97.20;;;;;;7387013;19;20006;-80
2023/10/22 02:02:54;;;;;;;22.75;3.58;;;15.80;97.20;;;;;;7395306;19;20026;-80
2023/10/22 02:05:23;;;;;;;22.50;2.92;;;15.70;97.30;;;;;;7407639;19;20028;-79
2023/10/22 02:07:51;;;;;;;30.33;3.78;;;15.60;97.40;;;;;;7384381;19;20007;-79
2023/10/22 02:10:20;;;;;;;24.92;4.13;;;15.20;98.00;;;;;;7383928;19;20002;-78
2023/10/22 02:12:50;;;;;;;35.20;3.80;;;15.30;97.90;;;;;;7383194;19;20003;-79
2023/10/22 02:15:19;;;;;;;20.42;3.50;;;15.50;97.90;;;;;;7382802;19;20003;-78
2023/10/22 02:17:50;;;;;;;32.65;4.55;;;15.60;97.70;;;;;;7384454;19;20007;-79
2023/10/22 02:20:19;;;;;;;40.03;4.07;;;15.70;97.60;;;;;;7404911;19;20015;-78
2023/10/22 02:22:48;;;;;;;27.33;3.10;;;15.80;97.60;;;;;;7384159;19;20006;-79
2023/10/22 02:25:17;;;;;;;26.33;3.38;;;15.90;97.60;;;;;;7383747;19;19999;-79
2023/10/22 02:27:46;;;;;;;22.45;3.55;;;15.90;97.50;;;;;;7383097;19;20066;-79
2023/10/22 02:30:16;;;;;;;38.67;4.05;;;15.70;97.40;;;;;;7382454;19;20030;-79
2023/10/22 02:32:44;;;;;;;30.67;4.35;;;15.80;97.30;;;;;;7384307;19;20014;-78
2023/10/22 02:35:16;;;;;;;25.17;3.78;;;15.90;97.20;;;;;;7405556;19;20027;-79
2023/10/22 02:37:44;;;;;;;;;;;15.80;97.10;;;;;;7383946;19;20361;-79
2023/10/22 02:40:13;;;;;;;26.88;3.60;;;15.80;97.10;;;;;;7381379;19;19911;-78
2023/10/22 02:42:42;;;;;;;22.70;3.55;;;15.80;97.10;;;;;;7383591;19;20007;-78
2023/10/22 02:45:12;;;;;;;26.75;3.22;;;15.80;97.30;;;;;;7383698;19;20273;-78
2023/10/22 02:47:41;;;;;;;24.33;3.55;;;15.70;97.30;;;;;;7382926;19;20038;-79
2023/10/22 02:50:11;;;;;;;28.27;3.92;;;15.70;97.20;;;;;;7402477;19;20002;-79
2023/10/22 02:52:42;;;;;;;25.67;3.15;;;15.70;97.30;;;;;;7390111;19;19914;-78
2023/10/22 02:55:11;;;;;;;34.47;4.20;;;15.60;97.30;;;;;;7381764;19;20006;-79
2023/10/22 02:57:40;;;;;;;22.77;3.65;;;15.60;97.30;;;;;;7382016;19;20377;-78
2023/10/22 03:00:12;;;;;;;25.85;3.83;;;15.70;97.30;;;;;;7380316;19;19999;-79
2023/10/22 03:02:41;;;;;;;34.90;4.05;;;15.70;97.20;;;;;;7382327;19;20054;-78
2023/10/22 03:05:10;;;;;;;32.38;3.45;;;15.70;97.20;;;;;;7403075;19;20003;-78
2023/10/22 03:07:38;;;;;;;28.92;3.63;;;15.60;97.00;;;;;;7380854;19;20019;-77
2023/10/22 03:10:12;;;;;;;27.02;3.75;;;15.40;97.40;;;;;;7381746;19;20003;-78
2023/10/22 03:12:41;;;;;;;23.77;4.00;;;15.60;97.50;;;;;;7381410;19;20042;-78
2023/10/22 03:15:11;;;;;;;25.38;2.95;;;15.50;97.30;;;;;;7382334;19;20011;-77
2023/10/22 03:17:40;;;;;;;26.60;3.30;;;15.60;97.40;;;;;;7379784;19;20051;-78
2023/10/22 03:20:10;;;;;;;24.63;3.13;;;15.70;97.20;;;;;;7400241;19;20006;-79
2023/10/22 03:22:40;;;;;;;28.45;3.15;;;15.70;97.30;;;;;;7382530;19;20243;-78
2023/10/22 03:25:12;;;;;;;25.67;3.47;;;15.60;97.70;;;;;;7381214;19;20007;-78
2023/10/22 03:27:41;;;;;;;24.90;3.97;;;15.60;97.70;;;;;;7381741;19;20011;-78
2023/10/22 03:30:13;;;;;;;22.05;3.20;;;15.70;97.60;;;;;;7379521;19;20011;-78
2023/10/22 03:32:42;;;;;;;22.35;3.25;;;15.80;97.70;;;;;;7377681;19;20099;-77
2023/10/22 03:35:11;;;;;;;22.63;3.45;;;15.50;97.70;;;;;;7399048;19;20007;-78
2023/10/22 03:37:40;;;;;;;25.42;3.42;;;15.60;97.80;;;;;;7377710;19;20014;-78
2023/10/22 03:40:12;;;;;;;14.50;3.22;;;15.70;97.80;;;;;;7379976;19;20006;-78
2023/10/22 03:42:41;;;;;;;33.38;3.58;;;15.60;97.80;;;;;;7380187;19;20034;-78
2023/10/22 03:45:12;;;;;;;21.02;3.10;;;15.60;97.80;;;;;;7385650;19;20011;-79
2023/10/22 03:47:41;;;;;;;30.63;3.28;;;15.60;97.70;;;;;;7384148;19;20014;-78
2023/10/22 03:50:10;;;;;;;32.90;3.35;;;15.50;97.70;;;;;;7404075;19;20006;-78
2023/10/22 03:52:39;;;;;;;25.45;3.38;;;15.40;98.00;;;;;;7380345;19;20011;-79
2023/10/22 03:55:11;;;;;;;21.80;3.05;;;15.20;98.20;;;;;;7379922;19;20042;-78
2023/10/22 03:57:40;;;;;;;18.85;2.85;;;15.40;98.20;;;;;;7378858;19;20023;-78
2023/10/22 04:00:10;;;;;;;25.30;3.33;;;15.40;98.10;;;;;;7379289;19;20002;-78
2023/10/22 04:02:39;;;;;;;24.08;3.20;;;15.40;98.20;;;;;;7377274;19;20370;-79
2023/10/22 04:05:08;;;;;;;28.27;3.10;;;15.40;98.20;;;;;;7401498;19;20042;-79
2023/10/22 04:07:37;;;;;;;31.35;3.38;;;15.40;98.30;;;;;;7379099;19;20059;-78
2023/10/22 04:10:09;;;;;;;30.65;3.38;;;15.40;98.30;;;;;;7379944;19;20029;-79
2023/10/22 04:12:41;;;;;;;23.77;3.42;;;15.40;98.20;;;;;;7378444;19;20346;-79
2023/10/22 04:15:11;;;;;;;24.73;3.72;;;15.40;98.20;;;;;;7380348;19;20015;-78
2023/10/22 04:17:40;;;;;;;25.88;3.55;;;15.40;98.30;;;;;;7379872;19;20013;-78
2023/10/22 04:20:10;;;;;;;24.15;3.70;;;15.40;98.20;;;;;;7403934;19;20365;-79
2023/10/22 04:22:39;;;;;;;27.35;3.63;;;15.40;98.10;;;;;;7379365;19;20010;-78
2023/10/22 04:25:08;;;;;;;19.73;2.78;;;15.40;98.20;;;;;;7379051;19;20006;-78
2023/10/22 04:27:40;;;;;;;32.00;3.55;;;15.50;98.00;;;;;;7379047;19;19999;-79
2023/10/22 04:30:10;;;;;;;19.27;3.70;;;15.30;98.10;;;;;;7381899;19;20002;-79
2023/10/22 04:32:39;;;;;;;25.70;3.60;;;15.00;98.40;;;;;;7378356;19;20014;-78
2023/10/22 04:35:08;;;;;;;31.92;3.50;;;15.20;98.30;;;;;;7400578;19;20023;-79
2023/10/22 04:37:37;;;;;;;20.88;2.97;;;15.10;98.50;;;;;;7379608;19;20015;-79
2023/10/22 04:40:07;;;;;;;22.88;3.55;;;15.20;98.30;;;;;;7381511;19;20003;-78
2023/10/22 04:42:36;;;;;;;25.23;4.28;;;15.30;98.20;;;;;;7381159;19;20106;-78
2023/10/22 04:45:08;;;;;;;29.83;4.32;;;15.40;98.00;;;;;;7380913;19;20055;-79
2023/10/22 04:47:37;;;;;;;22.83;3.65;;;15.50;97.90;;;;;;7379001;19;20024;-79
2023/10/22 04:50:06;;;;;;;31.30;4.13;;;15.60;97.80;;;;;;7398211;19;20006;-78
2023/10/22 04:52:35;;;;;;;23.58;4.30;;;15.50;97.50;;;;;;7374729;19;20033;-79
2023/10/22 04:55:04;;;;;;;27.63;4.15;;;15.50;97.60;;;;;;7378344;19;20006;-78
2023/10/22 04:57:33;;;;;;;19.63;3.45;;;15.50;97.70;;;;;;7376722;19;20015;-78
2023/10/22 05:00:02;;;;;;;44.63;4.00;;;15.50;97.60;;;;;;7373219;19;20091;-78
2023/10/22 05:02:33;;;;;;;28.38;3.95;;;15.50;97.60;;;;;;7395105;19;20014;-78
2023/10/22 05:05:02;;;;;;;25.42;3.90;;;15.60;97.50;;;;;;7376837;19;20211;-79
2023/10/22 05:07:30;;;;;;;33.47;3.80;;;15.60;97.50;;;;;;7377497;19;20023;-78
2023/10/22 05:09:59;;;;;;;28.10;3.30;;;15.70;97.40;;;;;;7375432;19;20007;-78
2023/10/22 05:12:28;;;;;;;21.13;3.10;;;15.70;97.30;;;;;;7376792;19;20007;-78
2023/10/22 05:14:57;;;;;;;31.10;4.05;;;15.70;97.30;;;;;;7377565;19;20003;-77
2023/10/22 05:17:26;;;;;;;22.10;3.30;;;15.60;97.10;;;;;;7402819;19;20014;-78
2023/10/22 05:19:57;;;;;;;20.58;3.17;;;15.60;97.40;;;;;;7384727;19;20058;-77
2023/10/22 05:22:26;;;;;;;25.10;3.13;;;15.60;97.40;;;;;;7382442;19;20006;-76
2023/10/22 05:24:55;;;;;;;32.90;3.78;;;15.60;97.30;;;;;;7380727;19;20006;-75
2023/10/22 05:27:24;;;;;;;30.63;3.92;;;15.50;97.40;;;;;;7380815;19;20019;-74
2023/10/22 05:29:53;;;;;;;28.33;3.60;;;15.60;97.50;;;;;;7380982;19;20000;-74
2023/10/22 05:32:22;;;;;;;23.88;3.47;;;15.60;97.60;;;;;;7400280;19;20546;-74
2023/10/22 05:34:50;;;;;;;28.92;3.78;;;15.60;97.50;;;;;;7380140;19;20015;-75
2023/10/22 05:37:22;;;;;;;24.40;3.40;;;15.70;97.50;;;;;;7381651;19;20011;-77
2023/10/22 05:39:54;;;;;;;24.88;3.22;;;15.60;97.40;;;;;;7382546;19;20358;-80
2023/10/22 05:42:23;;;;;;;25.60;3.05;;;15.60;97.40;;;;;;7384302;19;20006;-77
2023/10/22 05:56:27;;;;;;;24.52;3.38;;;15.70;97.50;;;;;;7377204;19;20083;-79
2023/10/22 05:58:55;;;;;;;;;;;15.50;97.60;;;;;;7383361;19;20096;-76
2023/10/22 06:01:24;;;;;;;25.33;3.47;;;15.60;97.60;;;;;;7382020;19;20161;-77
2023/10/22 06:03:53;;;;;;;31.20;3.83;;;15.50;97.50;;;;;;7383274;19;19999;-77
2023/10/22 06:06:22;;;;;;;19.25;3.05;;;15.40;97.80;;;;;;7383516;19;20356;-78
2023/10/22 06:08:51;;;;;;;25.58;3.95;;;15.50;97.80;;;;;;7383376;19;20011;-78
2023/10/22 06:11:19;;;;;;;21.77;3.42;;;15.50;97.80;;;;;;7408917;19;20027;-74
2023/10/22 06:13:51;;;;;;;20.00;3.03;;;15.40;97.70;;;;;;7382236;19;20258;-75
2023/10/22 06:16:20;;;;;;;29.67;3.63;;;15.50;97.80;;;;;;7382753;19;20062;-77
2023/10/22 06:18:49;;;;;;;23.73;3.35;;;15.60;97.70;;;;;;7389942;19;20028;-79
2023/10/22 06:21:18;;;;;;;22.13;3.45;;;15.60;97.70;;;;;;7394435;19;20235;-77
2023/10/22 06:23:47;;;;;;;31.38;3.03;;;15.70;97.70;;;;;;7383273;19;20010;-77
2023/10/22 06:26:18;;;;;;;24.60;3.25;;;15.60;97.70;;;;;;7404219;19;20019;-75
2023/10/22 06:28:46;;;;;;;20.98;3.58;;;15.50;97.70;;;;;;7382702;19;20114;-75
2023/10/22 06:31:18;;;;;;;30.27;4.40;;;15.60;97.80;;;;;;7381020;19;20077;-75
2023/10/22 06:33:46;;;;;;;21.10;4.40;;;15.70;97.80;;;;;;7380857;19;20010;-75
2023/10/22 06:36:18;;;;;;;32.20;3.40;;;15.70;97.70;;;;;;7381535;19;20007;-74
2023/10/22 06:38:51;;;;;;;22.58;3.03;;;15.60;97.70;;;;;;7381620;19;20006;-75
2023/10/22 06:41:23;;;;;;;22.25;4.13;;;15.70;97.70;;;;;;7402744;19;20023;-75
2023/10/22 06:43:53;;;;;;;35.65;7.25;;;15.50;98.00;;;;;;7380723;19;20009;-75
2023/10/22 06:46:24;;;;;;;30.45;3.33;;;15.60;97.90;;;;;;7380628;19;20233;-76
2023/10/22 06:48:53;;;;;;;;;;;15.60;97.90;;;;;;7382095;19;20025;-76
2023/10/22 06:51:22;;;;;;;33.13;5.35;;;15.70;97.80;;;;;;7380800;19;20249;-74
2023/10/22 06:53:50;;;;;;;31.70;4.43;;;15.60;97.70;;;;;;7380258;19;20107;-74
2023/10/22 06:56:19;;;;;;;24.80;3.80;;;15.70;97.70;;;;;;7399932;19;20342;-75
2023/10/22 06:58:48;;;;;;;23.65;3.53;;;15.80;97.80;;;;;;7380273;19;20006;-75
2023/10/22 07:01:17;;;;;;;29.83;3.65;;;15.90;97.80;;;;;;7380294;19;20406;-75
2023/10/22 07:03:49;;;;;;;27.60;3.83;;;15.90;97.60;;;;;;7380969;19;20002;-75
2023/10/22 07:06:17;;;;;;;23.17;4.93;;;15.90;97.50;;;;;;7380994;19;20111;-75
2023/10/22 07:08:46;;;;;;;31.27;4.53;;;16.00;97.50;;;;;;7384415;19;20090;-76
2023/10/22 07:11:15;;;;;;;32.75;5.10;;;15.80;97.50;;;;;;7401851;19;20013;-76
2023/10/22 07:13:44;;;;;;;25.13;4.10;;;15.90;97.50;;;;;;7377790;19;20024;-76
2023/10/22 07:16:14;;;;;;;24.83;4.00;;;16.00;97.60;;;;;;7380250;19;20015;-76
2023/10/22 07:18:44;;;;;;;29.52;4.38;;;15.90;97.50;;;;;;7380768;19;20116;-76
2023/10/22 07:21:15;;;;;;;27.13;4.07;;;16.00;97.50;;;;;;7381418;19;20068;-76
2023/10/22 07:23:44;;;;;;;21.25;5.05;;;15.80;97.40;;;;;;7383258;19;20015;-76
2023/10/22 07:26:12;;;;;;;23.20;6.13;;;15.90;97.50;;;;;;7402121;19;20011;-76
2023/10/22 07:28:42;;;;;;;28.83;4.07;;;15.90;97.80;;;;;;7379275;19;20003;-76
2023/10/22 07:31:12;;;;;;;34.00;7.50;;;15.90;97.40;;;;;;7379818;19;20014;-76
2023/10/22 07:33:41;;;;;;;21.95;4.30;;;15.80;97.30;;;;;;7379385;19;20007;-75
2023/10/22 07:36:10;;;;;;;29.92;4.80;;;15.90;97.30;;;;;;7378199;19;20458;-76
2023/10/22 07:38:42;;;;;;;32.63;4.88;;;15.90;97.30;;;;;;7378310;19;20006;-76
2023/10/22 07:41:16;;;;;;;23.65;3.60;;;16.00;97.40;;;;;;7400257;19;20010;-75
2023/10/22 07:43:45;;;;;;;15.80;3.05;;;15.90;97.20;;;;;;7378480;19;20007;-76
2023/10/22 07:46:15;;;;;;;24.30;4.40;;;15.80;97.20;;;;;;7378706;19;20002;-76
2023/10/22 07:48:44;;;;;;;18.70;3.65;;;15.90;97.30;;;;;;7378655;19;20030;-76
2023/10/22 07:51:15;;;;;;;31.35;4.38;;;15.90;97.30;;;;;;7378933;19;20017;-75
2023/10/22 07:53:47;;;;;;;16.05;3.28;;;16.00;97.30;;;;;;7377395;19;20017;-76
2023/10/22 07:56:18;;;;;;;22.27;3.60;;;15.80;97.30;;;;;;7398727;19;20074;-76
2023/10/22 07:58:47;;;;;;;17.55;2.75;;;15.90;97.30;;;;;;7378031;19;20070;-75
2023/10/22 08:01:16;;;;;;;21.65;2.72;;;15.90;97.40;;;;;;7378148;19;20372;-75
2023/10/22 08:03:45;;;;;;;24.92;3.53;;;16.00;97.50;;;;;;7380286;19;20010;-76
2023/10/22 08:06:13;;;;;;;16.95;3.17;;;16.00;97.60;;;;;;7378970;19;20006;-76
2023/10/22 08:08:42;;;;;;;21.23;3.65;;;16.10;97.70;;;;;;7377779;19;20011;-76
2023/10/22 08:11:13;;;;;;;24.42;3.40;;;16.20;97.70;;;;;;7400287;19;20006;-76
2023/10/22 08:13:42;;;;;;;21.88;3.30;;;16.30;97.60;;;;;;7376366;19;20003;-76
2023/10/22 08:16:12;;;;;;;23.85;3.40;;;16.30;97.40;;;;;;7377810;19;20003;-76
2023/10/22 08:18:41;;;;;;;21.20;3.17;;;16.30;97.30;;;;;;7378589;19;20030;-76
2023/10/22 08:21:11;;;;;;;24.95;3.17;;;16.40;97.30;;;;;;7378253;19;20007;-76
2023/10/22 08:23:40;;;;;;;22.08;3.55;;;16.40;97.30;;;;;;7378200;19;20007;-76
2023/10/22 08:26:09;;;;;;;16.08;3.15;;;16.40;97.20;;;;;;7399376;19;20002;-76
2023/10/22 08:28:40;;;;;;;24.50;2.83;;;16.30;96.90;;;;;;7377124;19;20235;-76
2023/10/22 08:31:09;;;;;;;;;;;16.30;97.00;;;;;;7378654;19;20023;-76
2023/10/22 08:33:38;;;;;;;17.25;2.83;;;16.30;97.20;;;;;;7376943;19;20011;-75
2023/10/22 08:36:10;;;;;;;20.85;3.20;;;16.40;97.20;;;;;;7378090;19;20078;-76
2023/10/22 08:38:40;;;;;;;18.52;3.20;;;16.40;97.10;;;;;;7378717;19;20019;-76
2023/10/22 08:41:16;;;;;;;16.92;2.40;;;16.30;97.20;;;;;;7399920;19;20010;-76
2023/10/22 08:43:48;;;;;;;18.23;3.58;;;16.20;97.10;;;;;;7377968;19;20003;-75
2023/10/22 08:46:17;;;;;;;30.05;8.30;;;16.30;97.10;;;;;;7377441;19;20007;-75
2023/10/22 08:48:48;;;;;;;16.48;4.07;;;16.40;97.10;;;;;;7378508;19;20016;-75
2023/10/22 08:51:17;;;;;;;16.95;3.33;;;16.30;96.90;;;;;;7382914;19;20009;-75
2023/10/22 08:53:46;;;;;;;23.88;3.03;;;16.30;96.90;;;;;;7383319;19;20062;-75
2023/10/22 08:56:15;;;;;;;26.08;3.40;;;16.30;96.90;;;;;;7403956;19;20114;-75
2023/10/22 08:58:46;;;;;;;21.52;3.28;;;16.30;97.00;;;;;;7383732;19;20075;-76
2023/10/22 09:01:15;;;;;;;20.58;2.75;;;16.30;96.90;;;;;;7384791;19;20010;-75
2023/10/22 09:03:44;;;;;;;17.45;2.85;;;16.40;96.90;;;;;;7384221;19;20016;-75
2023/10/22 09:06:13;;;;;;;16.67;3.15;;;16.50;96.90;;;;;;7383912;19;20394;-75
2023/10/22 09:08:44;;;;;;;18.55;3.60;;;16.50;96.70;;;;;;7383943;19;20010;-75
2023/10/22 09:11:17;;;;;;;21.08;2.83;;;16.50;96.60;;;;;;7405372;19;20010;-76
2023/10/22 09:13:49;;;;;;;19.88;2.95;;;16.50;96.60;;;;;;7381472;19;20016;-76
2023/10/22 09:16:33;;;;;;;17.52;2.47;;;16.60;96.70;;;;;;7384609;19;20003;-77
2023/10/22 09:19:04;;;;;;;16.02;2.40;;;16.40;96.60;;;;;;7383506;19;20014;-75
2023/10/22 09:21:44;;;;;;;18.58;2.28;;;16.20;96.90;;;;;;7383319;19;20186;-75
2023/10/22 09:24:13;;;;;;;16.70;2.75;;;16.20;97.00;;;;;;7383470;19;20017;-75
2023/10/22 09:26:48;;;;;;;21.98;2.72;;;16.20;96.80;;;;;;7383248;19;20098;-75
2023/10/22 09:29:19;;;;;;;17.13;2.75;;;16.30;96.80;;;;;;7404683;19;20020;-75
2023/10/22 09:31:54;;;;;;;10.48;2.25;;;16.30;96.50;;;;;;7382862;19;20006;-75
2023/10/22 09:34:27;;;;;;;22.30;2.28;;;16.40;96.60;;;;;;7382681;19;20079;-75
2023/10/22 09:36:57;;;;;;;19.20;2.70;;;16.40;96.60;;;;;;7382101;19;20009;-76
2023/10/22 09:39:36;;;;;;;14.23;2.30;;;16.50;96.80;;;;;;7384579;19;20295;-76
2023/10/22 09:42:09;;;;;;;23.00;3.28;;;16.30;96.30;;;;;;7384090;19;20006;-75
2023/10/22 09:44:43;;;;;;;13.48;1.95;;;16.40;96.20;;;;;;7382379;19;20359;-76
2023/10/22 09:47:21;;;;;;;23.38;2.65;;;16.40;96.20;;;;;;7404558;19;20014;-76
2023/10/22 09:49:53;;;;;;;11.75;2.15;;;16.50;96.30;;;;;;7382029;19;20257;-75
2023/10/22 09:52:24;;;;;;;24.33;2.72;;;16.50;96.10;;;;;;7382003;19;20002;-75
2023/10/22 09:54:56;;;;;;;16.75;2.60;;;16.60;95.80;;;;;;7380991;19;20082;-75
2023/10/22 09:57:31;;;;;;;16.08;2.72;;;16.60;95.70;;;;;;7384771;19;20018;-75
2023/10/22 10:00:08;;;;;;;14.68;2.72;;;16.60;95.70;;;;;;7386491;19;20007;-75
2023/10/22 10:02:38;;;;;;;15.25;2.30;;;16.60;95.60;;;;;;7387328;19;20014;-75
2023/10/22 10:05:09;;;;;;;13.48;2.60;;;16.30;95.30;;;;;;7405792;19;20077;-75
2023/10/22 10:07:41;;;;;;;18.45;2.70;;;16.40;95.50;;;;;;7382100;19;20003;-75
2023/10/22 10:10:11;;;;;;;14.80;2.40;;;16.40;95.50;;;;;;7381477;19;20010;-76
2023/10/22 10:12:43;;;;;;;9.25;2.15;;;16.30;95.60;;;;;;7380887;19;20010;-76
2023/10/22 10:15:26;;;;;;;;;;;16.30;95.20;;;;;;7382150;19;20010;-75
2023/10/22 10:17:57;;;;;;;21.95;2.60;;;16.30;95.20;;;;;;7381538;19;19915;-75
2023/10/22 10:20:26;;;;;;;17.60;2.45;;;16.40;95.20;;;;;;7400218;19;20002;-76
2023/10/22 10:23:06;;;;;;;15.10;1.92;;;16.50;94.90;;;;;;7380369;19;20372;-76
2023/10/22 10:25:38;;;;;;;14.00;2.20;;;16.60;94.70;;;;;;7382531;19;20036;-76
2023/10/22 10:28:08;;;;;;;11.45;2.40;;;16.50;94.30;;;;;;7381511;19;20022;-75
2023/10/22 10:30:39;;;;;;;16.53;2.47;;;16.50;94.40;;;;;;7381342;19;20029;-75
2023/10/22 10:33:14;;;;;;;16.20;2.58;;;16.60;94.60;;;;;;7380442;19;20263;-76
2023/10/22 10:35:47;;;;;;;15.95;2.67;;;16.70;94.60;;;;;;7381186;19;20006;-76
2023/10/22 10:38:28;;;;;;;19.27;3.35;;;16.70;94.50;;;;;;7402004;19;20218;-77
2023/10/22 10:40:58;;;;;;;14.50;2.70;;;16.80;94.90;;;;;;7380368;19;20381;-77
2023/10/22 10:43:57;;;;;;;17.00;2.83;;;16.80;94.50;;;;;;7380349;19;20006;-75
2023/10/22 10:46:29;;;;;;;12.20;2.22;;;16.90;93.50;;;;;;7380113;19;20010;-76
2023/10/22 10:49:01;;;;;;;15.18;2.58;;;16.70;93.10;;;;;;7380561;19;20021;-76
2023/10/22 10:51:29;;;;;;;17.33;2.35;;;16.80;93.40;;;;;;7380973;19;20015;-76
2023/10/22 10:54:22;;;;;;;16.30;2.63;;;16.80;93.40;;;;;;7383165;19;20010;-76
2023/10/22 10:56:54;;;;;;;20.50;3.03;;;16.90;93.60;;;;;;7378796;19;22379;-77
2023/10/22 10:59:34;;;;;;;18.25;2.85;;;16.90;93.40;;;;;;7401912;19;20014;-75
2023/10/22 11:02:10;;;;;;;13.60;2.75;;;16.90;93.50;;;;;;7380735;19;20006;-76
2023/10/22 11:04:46;;;;;;;23.13;2.75;;;16.90;92.90;;;;;;7382172;19;20003;-75
2023/10/22 11:07:15;;;;;;;13.07;2.38;;;16.90;93.20;;;;;;7386274;19;20007;-76
2023/10/22 11:09:47;;;;;;;12.68;2.70;;;16.90;92.90;;;;;;7384383;19;20007;-76
2023/10/22 11:12:18;;;;;;;18.00;2.47;;;17.00;93.30;;;;;;7384817;19;20062;-76
2023/10/22 11:14:54;;;;;;;15.55;2.85;;;17.10;92.90;;;;;;7379610;19;20007;-76
2023/10/22 11:17:23;;;;;;;14.05;2.63;;;17.00;93.00;;;;;;7401225;19;20378;-77
2023/10/22 11:19:55;;;;;;;18.30;3.13;;;17.10;92.70;;;;;;7379165;19;20372;-76
2023/10/22 11:22:24;;;;;;;21.52;3.45;;;17.10;92.40;;;;;;7379479;19;20027;-75
2023/10/22 11:24:55;;;;;;;18.70;2.45;;;17.20;92.70;;;;;;7379775;19;20015;-76
2023/10/22 11:27:27;;;;;;;16.88;2.42;;;17.20;92.20;;;;;;7379801;19;20070;-76
2023/10/22 11:29:56;;;;;;;15.80;2.65;;;17.30;92.00;;;;;;7379561;19;20227;-75
2023/10/22 11:32:26;;;;;;;24.75;2.75;;;17.30;92.10;;;;;;7400354;19;20279;-76
2023/10/22 11:35:01;;;;;;;15.55;2.47;;;17.10;92.10;;;;;;7377014;19;20010;-76
2023/10/22 11:37:36;;;;;;;14.20;2.47;;;17.10;92.00;;;;;;7378401;19;20002;-77
2023/10/22 11:40:28;;;;;;;21.92;2.60;;;17.20;92.00;;;;;;7378710;19;20104;-76
2023/10/22 11:42:58;;;;;;;;;;;17.30;91.80;;;;;;7379351;19;20017;-77
2023/10/22 11:45:30;;;;;;;13.70;2.40;;;17.40;91.50;;;;;;7378908;19;19913;-76
2023/10/22 11:48:13;;;;;;;20.42;2.47;;;17.30;91.50;;;;;;7378946;19;20361;-76
2023/10/22 11:50:48;;;;;;;23.25;3.17;;;17.30;91.60;;;;;;7378621;19;20002;-76
2023/10/22 11:53:17;;;;;;;20.13;2.75;;;17.40;91.80;;;;;;7399672;19;20079;-77
2023/10/22 11:55:46;;;;;;;16.35;2.90;;;17.40;91.70;;;;;;7376549;19;20270;-76
2023/10/22 11:58:24;;;;;;;9.00;2.10;;;17.30;91.80;;;;;;7377739;19;20062;-75
2023/10/22 12:00:52;;;;;;;12.75;2.30;;;17.30;91.50;;;;;;7378584;19;19999;-76
2023/10/22 12:03:22;;;;;;;20.50;3.03;;;17.30;91.20;;;;;;7378514;19;20023;-75
2023/10/22 12:05:53;;;;;;;17.33;2.67;;;17.40;91.30;;;;;;7378488;19;20014;-75
2023/10/22 12:08:22;;;;;;;13.65;2.70;;;17.40;91.50;;;;;;7399699;19;20014;-76
2023/10/22 12:10:51;;;;;;;18.00;2.65;;;17.50;91.30;;;;;;7377251;19;20009;-77
2023/10/22 12:13:20;;;;;;;15.75;2.90;;;17.50;91.20;;;;;;7377356;19;20375;-76
2023/10/22 12:15:50;;;;;;;12.80;2.60;;;17.40;91.30;;;;;;7377804;19;20254;-77
2023/10/22 12:18:18;;;;;;;20.30;2.95;;;17.40;91.50;;;;;;7378255;19;20006;-76
2023/10/22 12:20:47;;;;;;;22.55;3.53;;;17.50;91.60;;;;;;7378138;19;20094;-75
2023/10/22 12:23:18;;;;;;;21.83;3.63;;;17.40;91.60;;;;;;7399856;19;20025;-75
2023/10/22 12:25:47;;;;;;;17.40;2.25;;;17.40;91.70;;;;;;7383705;19;20071;-76
2023/10/22 12:28:16;;;;;;;15.55;2.60;;;17.40;91.20;;;;;;7384895;19;20421;-76
2023/10/22 12:30:44;;;;;;;15.35;2.97;;;17.40;91.20;;;;;;7384004;19;20002;-76
2023/10/22 12:33:13;;;;;;;23.58;2.88;;;17.40;91.40;;;;;;7384187;19;20023;-77
2023/10/22 12:35:42;;;;;;;19.63;2.63;;;17.50;91.50;;;;;;7387738;19;20003;-76
2023/10/22 12:38:11;;;;;;;20.35;2.85;;;17.60;91.60;;;;;;7411231;19;20023;-77
2023/10/22 12:40:42;;;;;;;14.23;2.92;;;17.70;91.30;;;;;;7385259;19;20023;-77
2023/10/22 12:43:10;;;;;;;14.25;2.67;;;17.70;91.30;;;;;;7385537;19;20002;-77
2023/10/22 12:45:42;;;;;;;13.10;2.60;;;17.80;91.00;;;;;;7385075;19;20070;-76
2023/10/22 12:48:11;;;;;;;17.85;3.17;;;17.70;90.80;;;;;;7385821;19;20003;-76
2023/10/22 12:50:39;;;;;;;20.60;2.92;;;17.80;90.90;;;;;;7384636;19;20016;-76
2023/10/22 12:53:08;;;;;;;14.05;2.45;;;17.80;91.00;;;;;;7405193;19;20023;-77
2023/10/22 12:55:37;;;;;;;23.50;3.20;;;17.90;90.90;;;;;;7381999;19;20027;-77
2023/10/22 12:58:08;;;;;;;17.08;3.05;;;17.80;90.60;;;;;;7383530;19;20086;-77
2023/10/22 13:00:41;;;;;;;18.88;2.50;;;17.90;90.60;;;;;;7383675;19;20003;-77
2023/10/22 13:03:10;;;;;;;22.40;2.78;;;18.00;90.20;;;;;;7384656;19;20106;-77
2023/10/22 13:05:39;;;;;;;13.45;2.42;;;17.90;90.10;;;;;;7383353;19;20026;-77